createdAt,value
2018-12-30T00:00:39.858Z,1017.88
2018-12-30T00:01:38.588Z,1017.9
2018-12-30T00:02:37.156Z,1017.94
2018-12-30T00:03:35.735Z,1018.01
2018-12-30T00:04:34.313Z,1018.03
2018-12-30T00:05:33.218Z,1018.1
2018-12-30T00:06:32.062Z,1018.06
2018-12-30T00:07:30.739Z,1018.14
2018-12-30T00:08:29.330Z,1018.22
2018-12-30T00:09:27.852Z,1018.27
2018-12-30T00:10:26.407Z,1018.24
2018-12-30T00:11:25.229Z,1018.38
2018-12-30T00:12:23.715Z,1018.29
2018-12-30T00:13:22.266Z,1018.33
2018-12-30T00:14:21.284Z,1018.35
2018-12-30T00:15:19.875Z,1018.37
2018-12-30T00:16:18.473Z,1018.43
2018-12-30T00:17:17.334Z,1018.42
2018-12-30T00:18:15.953Z,1018.43
2018-12-30T00:19:14.784Z,1018.33
2018-12-30T00:20:13.312Z,1018.24
2018-12-30T00:21:11.864Z,1018.2
2018-12-30T00:22:10.401Z,1018.18
2018-12-30T00:23:08.938Z,1018.18
2018-12-30T00:24:07.493Z,1018.11
2018-12-30T00:25:06.045Z,1018.06
2018-12-30T00:26:04.556Z,1018.04
2018-12-30T00:27:03.122Z,1018.01
2018-12-30T00:28:01.821Z,1017.94
2018-12-30T00:29:00.555Z,1017.93
2018-12-30T00:29:59.467Z,1017.94
2018-12-30T00:30:58.037Z,1017.87
2018-12-30T00:31:56.629Z,1017.9
2018-12-30T00:32:55.174Z,1017.93
2018-12-30T00:33:53.709Z,1017.81
2018-12-30T00:34:52.227Z,1017.77
2018-12-30T00:35:50.783Z,1017.72
2018-12-30T00:36:49.630Z,1017.6
2018-12-30T00:37:48.160Z,1017.62
2018-12-30T00:38:47.218Z,1017.59
2018-12-30T00:39:45.794Z,1017.59
2018-12-30T00:40:44.327Z,1017.61
2018-12-30T00:41:43.203Z,1017.48
2018-12-30T00:42:41.723Z,1017.46
2018-12-30T00:43:40.276Z,1017.6
2018-12-30T00:44:39.315Z,1017.53
2018-12-30T00:45:38.110Z,1017.58
2018-12-30T00:46:36.727Z,1017.53
2018-12-30T00:47:35.431Z,1017.53
2018-12-30T00:48:33.985Z,1017.56
2018-12-30T00:49:32.712Z,1017.54
2018-12-30T00:50:31.331Z,1017.57
2018-12-30T00:51:29.857Z,1017.53
2018-12-30T00:52:28.452Z,1017.53
2018-12-30T00:53:27.032Z,1017.62
2018-12-30T00:54:25.586Z,1017.67
2018-12-30T00:55:24.125Z,1017.67
2018-12-30T00:56:22.932Z,1017.75
2018-12-30T00:57:21.659Z,1017.67
2018-12-30T00:58:20.409Z,1017.77
2018-12-30T00:59:18.957Z,1017.77
2018-12-30T01:00:17.582Z,1017.83
2018-12-30T01:01:16.160Z,1017.85
2018-12-30T01:02:15.025Z,1017.91
2018-12-30T01:03:13.756Z,1017.89
2018-12-30T01:04:12.434Z,1017.92
2018-12-30T01:05:11.292Z,1017.94
2018-12-30T01:06:09.848Z,1017.98
2018-12-30T01:07:08.596Z,1017.89
2018-12-30T01:08:07.361Z,1017.84
2018-12-30T01:09:05.902Z,1017.9
2018-12-30T01:10:04.626Z,1017.92
2018-12-30T01:11:03.183Z,1018
2018-12-30T01:12:01.733Z,1017.92
2018-12-30T01:13:00.273Z,1017.91
2018-12-30T01:13:58.906Z,1017.9
2018-12-30T01:14:57.600Z,1017.95
2018-12-30T01:15:56.137Z,1018
2018-12-30T01:16:54.763Z,1017.95
2018-12-30T01:17:53.452Z,1017.93
2018-12-30T01:18:51.964Z,1017.93
2018-12-30T01:19:50.629Z,1017.94
2018-12-30T01:20:49.265Z,1018.01
2018-12-30T01:21:47.830Z,1017.95
2018-12-30T01:22:46.373Z,1018.01
2018-12-30T01:23:44.928Z,1018.02
2018-12-30T01:24:43.499Z,1018.06
2018-12-30T01:25:42.042Z,1018.09
2018-12-30T01:26:40.895Z,1018.16
2018-12-30T01:27:39.603Z,1018.24
2018-12-30T01:28:38.293Z,1018.25
2018-12-30T01:29:36.872Z,1018.2
2018-12-30T01:30:35.571Z,1018.26
2018-12-30T01:31:34.118Z,1018.22
2018-12-30T01:32:33.003Z,1018.3
2018-12-30T01:33:31.719Z,1018.33
2018-12-30T01:34:30.438Z,1018.28
2018-12-30T01:35:29.078Z,1018.25
2018-12-30T01:36:27.607Z,1018.21
2018-12-30T01:37:26.181Z,1018.22
2018-12-30T01:38:25.129Z,1018.18
2018-12-30T01:39:23.698Z,1018.23
2018-12-30T01:40:22.289Z,1018.21
2018-12-30T01:41:21.065Z,1018.26
2018-12-30T01:42:19.609Z,1018.29
2018-12-30T01:43:18.226Z,1018.3
2018-12-30T01:44:16.851Z,1018.34
2018-12-30T01:46:57.440Z,1018.28
2018-12-30T01:47:55.964Z,1018.24
2018-12-30T01:48:54.632Z,1018.25
2018-12-30T01:49:53.188Z,1018.21
2018-12-30T01:50:51.738Z,1018.25
2018-12-30T01:51:50.296Z,1018.25
2018-12-30T01:52:48.908Z,1018.15
2018-12-30T01:53:47.580Z,1018.18
2018-12-30T01:54:46.128Z,1018.12
2018-12-30T01:55:45.162Z,1018.15
2018-12-30T01:56:43.789Z,1018.16
2018-12-30T01:57:42.345Z,1018.11
2018-12-30T01:58:40.871Z,1018.09
2018-12-30T01:59:39.430Z,1018.16
2018-12-30T02:00:37.997Z,1018.2
2018-12-30T02:01:36.822Z,1018.16
2018-12-30T02:02:35.561Z,1018.17
2018-12-30T02:03:34.133Z,1018.15
2018-12-30T02:14:57.851Z,1018.19
2018-12-30T02:15:56.551Z,1018.23
2018-12-30T02:16:55.081Z,1018.23
2018-12-30T02:17:53.689Z,1018.19
2018-12-30T02:18:52.248Z,1018.2
2018-12-30T02:19:51.120Z,1018.24
2018-12-30T02:20:49.666Z,1018.09
2018-12-30T02:21:48.258Z,1018.15
2018-12-30T02:22:47.122Z,1018.16
2018-12-30T02:23:45.671Z,1018.21
2018-12-30T02:24:44.198Z,1018.21
2018-12-30T02:25:42.748Z,1018.24
2018-12-30T02:26:41.283Z,1018.17
2018-12-30T02:27:39.810Z,1018.09
2018-12-30T02:28:38.385Z,1018.13
2018-12-30T02:29:37.316Z,1018.12
2018-12-30T02:30:35.922Z,1018.08
2018-12-30T02:31:34.755Z,1018.1
2018-12-30T02:32:33.317Z,1018.05
2018-12-30T02:33:31.850Z,1018.18
2018-12-30T02:34:30.469Z,1018.15
2018-12-30T02:35:29.037Z,1018.22
2018-12-30T02:36:27.575Z,1018.18
2018-12-30T02:37:26.149Z,1018.19
2018-12-30T02:38:24.933Z,1018.2
2018-12-30T02:39:23.595Z,1018.16
2018-12-30T02:40:22.234Z,1018.21
2018-12-30T02:41:20.918Z,1018.18
2018-12-30T02:42:19.495Z,1018.25
2018-12-30T02:43:18.038Z,1018.27
2018-12-30T02:44:16.603Z,1018.31
2018-12-30T02:45:15.336Z,1018.22
2018-12-30T02:46:13.907Z,1018.21
2018-12-30T02:47:12.589Z,1018.26
2018-12-30T02:48:11.343Z,1018.18
2018-12-30T02:49:09.882Z,1018.26
2018-12-30T02:50:08.557Z,1018.28
2018-12-30T02:51:07.149Z,1018.37
2018-12-30T02:52:05.726Z,1018.47
2018-12-30T02:53:04.289Z,1018.4
2018-12-30T02:54:03.187Z,1018.45
2018-12-30T02:55:01.740Z,1018.43
2018-12-30T02:56:00.308Z,1018.36
2018-12-30T02:56:59.141Z,1018.36
2018-12-30T02:57:57.737Z,1018.37
2018-12-30T02:58:56.301Z,1018.43
2018-12-30T03:01:36.289Z,1018.47
2018-12-30T03:02:34.915Z,1018.45
2018-12-30T03:03:33.635Z,1018.46
2018-12-30T03:04:32.214Z,1018.5
2018-12-30T03:05:31.153Z,1018.47
2018-12-30T03:06:29.691Z,1018.46
2018-12-30T03:07:28.202Z,1018.47
2018-12-30T03:08:26.836Z,1018.42
2018-12-30T03:09:25.448Z,1018.49
2018-12-30T03:10:24.063Z,1018.51
2018-12-30T03:11:22.843Z,1018.46
2018-12-30T03:12:21.578Z,1018.51
2018-12-30T03:13:20.113Z,1018.52
2018-12-30T03:14:19.456Z,1018.53
2018-12-30T03:15:18.029Z,1018.52
2018-12-30T03:16:16.874Z,1018.59
2018-12-30T03:17:15.417Z,1018.56
2018-12-30T03:18:13.957Z,1018.57
2018-12-30T03:19:12.502Z,1018.54
2018-12-30T03:20:11.059Z,1018.67
2018-12-30T03:21:09.606Z,1018.52
2018-12-30T03:22:08.143Z,1018.56
2018-12-30T03:23:07.204Z,1018.53
2018-12-30T03:24:05.770Z,1018.5
2018-12-30T03:25:04.506Z,1018.58
2018-12-30T03:26:03.091Z,1018.57
2018-12-30T03:27:01.662Z,1018.6
2018-12-30T03:28:00.188Z,1018.63
2018-12-30T03:28:59.027Z,1018.68
2018-12-30T03:29:57.711Z,1018.73
2018-12-30T03:30:56.246Z,1018.63
2018-12-30T03:31:55.096Z,1018.63
2018-12-30T03:32:53.629Z,1018.64
2018-12-30T03:33:52.175Z,1018.64
2018-12-30T03:34:50.714Z,1018.65
2018-12-30T03:35:49.264Z,1018.67
2018-12-30T03:36:47.853Z,1018.68
2018-12-30T03:37:46.411Z,1018.66
2018-12-30T03:38:45.304Z,1018.65
2018-12-30T03:39:43.876Z,1018.64
2018-12-30T03:40:42.456Z,1018.65
2018-12-30T03:41:41.331Z,1018.61
2018-12-30T03:42:39.891Z,1018.66
2018-12-30T03:43:38.456Z,1018.64
2018-12-30T03:44:37.261Z,1018.63
2018-12-30T03:45:35.830Z,1018.65
2018-12-30T03:46:34.381Z,1018.69
2018-12-30T03:47:33.286Z,1018.66
2018-12-30T03:48:31.855Z,1018.65
2018-12-30T03:49:30.419Z,1018.62
2018-12-30T03:50:28.967Z,1018.68
2018-12-30T03:51:27.546Z,1018.65
2018-12-30T03:52:26.075Z,1018.69
2018-12-30T03:53:24.981Z,1018.66
2018-12-30T03:54:23.729Z,1018.68
2018-12-30T03:55:22.504Z,1018.68
2018-12-30T03:56:21.092Z,1018.71
2018-12-30T03:57:19.687Z,1018.69
2018-12-30T03:58:18.233Z,1018.69
2018-12-30T03:59:17.132Z,1018.64
2018-12-30T04:00:15.749Z,1018.6
2018-12-30T04:01:14.452Z,1018.58
2018-12-30T04:02:13.091Z,1018.54
2018-12-30T04:03:11.687Z,1018.54
2018-12-30T04:04:10.219Z,1018.54
2018-12-30T04:05:08.844Z,1018.53
2018-12-30T04:06:07.564Z,1018.47
2018-12-30T04:07:06.094Z,1018.54
2018-12-30T04:08:05.156Z,1018.54
2018-12-30T04:09:03.765Z,1018.53
2018-12-30T04:10:02.319Z,1018.48
2018-12-30T04:11:00.880Z,1018.55
2018-12-30T04:11:59.575Z,1018.57
2018-12-30T04:12:58.130Z,1018.56
2018-12-30T04:13:56.905Z,1018.62
2018-12-30T04:14:55.505Z,1018.59
2018-12-30T04:15:54.019Z,1018.53
2018-12-30T04:16:52.604Z,1018.54
2018-12-30T04:17:51.406Z,1018.57
2018-12-30T04:18:49.971Z,1018.62
2018-12-30T04:19:48.612Z,1018.63
2018-12-30T04:20:47.389Z,1018.63
2018-12-30T04:21:45.950Z,1018.66
2018-12-30T04:22:44.641Z,1018.67
2018-12-30T04:23:43.302Z,1018.65
2018-12-30T04:24:41.835Z,1018.57
2018-12-30T04:25:40.408Z,1018.55
2018-12-30T04:26:39.011Z,1018.58
2018-12-30T04:27:37.585Z,1018.54
2018-12-30T04:28:36.119Z,1018.51
2018-12-30T04:29:34.607Z,1018.57
2018-12-30T04:30:33.167Z,1018.64
2018-12-30T04:31:31.691Z,1018.61
2018-12-30T04:32:30.219Z,1018.64
2018-12-30T04:33:29.059Z,1018.62
2018-12-30T04:34:27.706Z,1018.64
2018-12-30T04:35:26.249Z,1018.74
2018-12-30T04:36:25.114Z,1018.82
2018-12-30T04:37:23.618Z,1018.81
2018-12-30T04:38:22.172Z,1018.74
2018-12-30T04:39:20.764Z,1018.77
2018-12-30T04:40:19.284Z,1018.87
2018-12-30T04:41:17.881Z,1018.85
2018-12-30T04:42:16.441Z,1018.8
2018-12-30T04:43:15.261Z,1018.95
2018-12-30T04:44:13.814Z,1018.86
2018-12-30T04:45:12.370Z,1018.8
2018-12-30T04:46:11.267Z,1018.72
2018-12-30T04:47:09.817Z,1018.74
2018-12-30T04:48:08.355Z,1018.79
2018-12-30T04:49:06.919Z,1018.83
2018-12-30T04:50:05.476Z,1018.76
2018-12-30T04:51:04.024Z,1018.84
2018-12-30T04:52:02.551Z,1018.88
2018-12-30T04:53:01.437Z,1018.81
2018-12-30T04:53:59.974Z,1018.86
2018-12-30T04:54:58.839Z,1018.8
2018-12-30T04:55:57.405Z,1018.81
2018-12-30T04:56:55.980Z,1018.8
2018-12-30T04:57:54.530Z,1018.82
2018-12-30T04:58:53.070Z,1018.79
2018-12-30T04:59:51.635Z,1018.85
2018-12-30T05:00:50.195Z,1018.79
2018-12-30T05:01:49.020Z,1018.8
2018-12-30T05:02:47.731Z,1018.8
2018-12-30T05:03:46.274Z,1018.82
2018-12-30T05:04:45.539Z,1018.77
2018-12-30T05:05:44.089Z,1018.86
2018-12-30T05:06:42.735Z,1018.85
2018-12-30T05:07:41.512Z,1018.83
2018-12-30T05:08:40.097Z,1018.94
2018-12-30T05:09:38.708Z,1018.89
2018-12-30T05:10:37.243Z,1018.92
2018-12-30T05:11:35.813Z,1018.85
2018-12-30T05:12:34.365Z,1018.89
2018-12-30T05:13:33.182Z,1018.87
2018-12-30T05:14:31.734Z,1018.85
2018-12-30T05:15:30.300Z,1018.86
2018-12-30T05:16:29.297Z,1018.89
2018-12-30T05:17:27.824Z,1018.85
2018-12-30T05:18:26.407Z,1018.9
2018-12-30T05:19:24.934Z,1018.91
2018-12-30T05:20:23.489Z,1018.92
2018-12-30T05:21:22.048Z,1018.81
2018-12-30T05:22:20.768Z,1018.94
2018-12-30T05:23:19.460Z,1018.99
2018-12-30T05:24:17.983Z,1019.05
2018-12-30T05:25:16.870Z,1019.1
2018-12-30T05:26:15.481Z,1019.1
2018-12-30T05:27:14.031Z,1019.11
2018-12-30T05:28:12.596Z,1019.09
2018-12-30T05:29:11.404Z,1019.13
2018-12-30T05:30:09.961Z,1019.14
2018-12-30T05:31:08.506Z,1019.19
2018-12-30T05:32:07.425Z,1019.17
2018-12-30T05:33:05.963Z,1019.2
2018-12-30T05:34:04.545Z,1019.2
2018-12-30T05:35:03.201Z,1019.27
2018-12-30T05:36:01.754Z,1019.16
2018-12-30T05:37:00.305Z,1019.18
2018-12-30T05:37:59.142Z,1019.22
2018-12-30T05:38:57.719Z,1019.22
2018-12-30T05:39:56.271Z,1019.27
2018-12-30T05:40:55.111Z,1019.29
2018-12-30T05:41:53.645Z,1019.24
2018-12-30T05:42:52.175Z,1019.21
2018-12-30T05:43:50.756Z,1019.29
2018-12-30T05:44:49.284Z,1019.27
2018-12-30T05:45:47.815Z,1019.29
2018-12-30T05:46:46.387Z,1019.33
2018-12-30T05:47:45.001Z,1019.33
2018-12-30T05:48:43.672Z,1019.34
2018-12-30T05:49:42.210Z,1019.4
2018-12-30T05:50:40.852Z,1019.42
2018-12-30T05:51:39.572Z,1019.48
2018-12-30T05:52:41.694Z,1019.54
2018-12-30T05:53:36.805Z,1019.51
2018-12-30T05:54:35.402Z,1019.48
2018-12-30T05:55:33.953Z,1019.53
2018-12-30T05:56:32.523Z,1019.59
2018-12-30T05:57:31.117Z,1019.59
2018-12-30T05:58:29.657Z,1019.64
2018-12-30T05:59:28.228Z,1019.6
2018-12-30T06:00:27.003Z,1019.66
2018-12-30T06:01:25.699Z,1019.75
2018-12-30T06:02:24.372Z,1019.83
2018-12-30T06:03:23.044Z,1019.84
2018-12-30T06:04:21.568Z,1019.88
2018-12-30T06:05:20.113Z,1019.93
2018-12-30T06:06:18.742Z,1019.92
2018-12-30T06:07:17.531Z,1019.96
2018-12-30T06:08:16.108Z,1019.92
2018-12-30T06:09:14.666Z,1019.9
2018-12-30T06:10:13.472Z,1019.87
2018-12-30T06:11:12.028Z,1019.9
2018-12-30T06:12:10.664Z,1019.86
2018-12-30T06:13:09.228Z,1019.89
2018-12-30T06:14:07.778Z,1019.95
2018-12-30T06:15:06.371Z,1019.89
2018-12-30T06:16:05.283Z,1019.96
2018-12-30T06:17:03.830Z,1019.98
2018-12-30T06:18:02.364Z,1020.01
2018-12-30T06:19:01.238Z,1020.04
2018-12-30T06:19:59.765Z,1020.06
2018-12-30T06:22:39.889Z,1020.07
2018-12-30T06:23:38.447Z,1020.01
2018-12-30T06:24:37.273Z,1020.04
2018-12-30T06:25:35.860Z,1020.05
2018-12-30T06:26:34.450Z,1020.08
2018-12-30T06:27:33.267Z,1020.14
2018-12-30T06:28:31.848Z,1020.09
2018-12-30T06:29:30.372Z,1020.16
2018-12-30T06:30:28.972Z,1020.11
2018-12-30T06:31:27.519Z,1020.15
2018-12-30T06:32:26.105Z,1020.12
2018-12-30T06:33:24.821Z,1020.15
2018-12-30T06:34:23.485Z,1020.17
2018-12-30T06:35:22.061Z,1020.1
2018-12-30T06:36:20.956Z,1020.17
2018-12-30T06:37:19.515Z,1020.15
2018-12-30T06:38:18.094Z,1020.24
2018-12-30T06:39:16.939Z,1020.2
2018-12-30T06:41:57.349Z,1020.24
2018-12-30T06:42:55.897Z,1020.16
2018-12-30T06:43:54.445Z,1020.25
2018-12-30T06:44:53.080Z,1020.23
2018-12-30T06:45:51.620Z,1020.24
2018-12-30T06:46:50.175Z,1020.21
2018-12-30T06:47:49.606Z,1020.25
2018-12-30T06:48:48.785Z,1020.32
2018-12-30T06:49:47.353Z,1020.33
2018-12-30T06:50:45.923Z,1020.32
2018-12-30T06:51:44.548Z,1020.28
2018-12-30T06:52:43.347Z,1020.34
2018-12-30T06:55:23.743Z,1020.46
2018-12-30T06:56:22.398Z,1020.52
2018-12-30T06:57:21.052Z,1020.51
2018-12-30T06:58:19.588Z,1020.58
2018-12-30T06:59:18.150Z,1020.64
2018-12-30T07:00:16.747Z,1020.69
2018-12-30T07:01:15.301Z,1020.73
2018-12-30T07:02:13.877Z,1020.75
2018-12-30T07:03:12.523Z,1020.74
2018-12-30T07:04:11.157Z,1020.71
2018-12-30T07:05:09.902Z,1020.76
2018-12-30T07:06:08.650Z,1020.68
2018-12-30T07:07:07.238Z,1020.75
2018-12-30T07:08:05.836Z,1020.74
2018-12-30T07:09:04.448Z,1020.76
2018-12-30T07:10:03.202Z,1020.78
2018-12-30T07:11:01.859Z,1020.78
2018-12-30T07:12:00.627Z,1020.84
2018-12-30T07:12:59.321Z,1020.93
2018-12-30T07:13:57.929Z,1020.93
2018-12-30T07:14:56.520Z,1020.93
2018-12-30T07:15:55.331Z,1021.01
2018-12-30T07:16:53.861Z,1021.02
2018-12-30T07:17:52.481Z,1021.05
2018-12-30T07:18:51.434Z,1021.01
2018-12-30T07:19:50.011Z,1021.03
2018-12-30T07:20:48.602Z,1021.02
2018-12-30T07:21:47.561Z,1021.08
2018-12-30T07:22:46.136Z,1021.11
2018-12-30T07:23:44.896Z,1021.09
2018-12-30T07:24:43.522Z,1021.12
2018-12-30T07:25:42.109Z,1021.09
2018-12-30T07:26:40.731Z,1021.13
2018-12-30T07:27:39.522Z,1021.17
2018-12-30T07:28:38.064Z,1021.17
2018-12-30T07:29:36.971Z,1021.17
2018-12-30T07:30:35.667Z,1021.13
2018-12-30T07:31:34.241Z,1021.16
2018-12-30T07:32:33.122Z,1021.16
2018-12-30T07:33:31.745Z,1021.21
2018-12-30T07:34:30.296Z,1021.22
2018-12-30T07:35:29.102Z,1021.26
2018-12-30T07:36:27.625Z,1021.26
2018-12-30T07:37:26.195Z,1021.22
2018-12-30T07:38:24.789Z,1021.15
2018-12-30T07:39:23.404Z,1021.14
2018-12-30T07:40:21.923Z,1021.14
2018-12-30T07:41:20.514Z,1021.21
2018-12-30T07:42:19.240Z,1021.18
2018-12-30T07:43:17.919Z,1021.23
2018-12-30T07:44:16.479Z,1021.16
2018-12-30T07:45:15.249Z,1021.16
2018-12-30T07:46:13.772Z,1021.19
2018-12-30T07:47:12.444Z,1021.28
2018-12-30T07:48:11.332Z,1021.3
2018-12-30T07:49:09.879Z,1021.32
2018-12-30T07:50:08.453Z,1021.31
2018-12-30T07:51:07.317Z,1021.24
2018-12-30T07:52:05.805Z,1021.33
2018-12-30T07:53:04.383Z,1021.29
2018-12-30T07:54:03.021Z,1021.26
2018-12-30T07:55:01.834Z,1021.25
2018-12-30T07:56:00.777Z,1021.19
2018-12-30T07:56:59.404Z,1021.09
2018-12-30T07:57:57.974Z,1021.04
2018-12-30T07:58:56.557Z,1020.97
2018-12-30T07:59:56.029Z,1020.91
2018-12-30T08:00:53.806Z,1020.88
2018-12-30T08:01:52.321Z,1020.9
2018-12-30T08:02:51.153Z,1020.93
2018-12-30T08:03:49.852Z,1020.92
2018-12-30T08:04:48.389Z,1020.92
2018-12-30T08:05:47.208Z,1020.87
2018-12-30T08:06:45.810Z,1020.86
2018-12-30T08:07:44.330Z,1020.83
2018-12-30T08:08:43.229Z,1020.86
2018-12-30T08:09:41.833Z,1020.87
2018-12-30T08:10:40.521Z,1020.91
2018-12-30T08:11:39.169Z,1020.86
2018-12-30T08:12:37.724Z,1020.93
2018-12-30T08:13:36.248Z,1020.94
2018-12-30T08:14:34.803Z,1020.93
2018-12-30T08:15:33.377Z,1020.95
2018-12-30T08:16:31.958Z,1020.92
2018-12-30T08:17:30.636Z,1020.84
2018-12-30T08:18:29.335Z,1020.93
2018-12-30T08:19:27.907Z,1020.96
2018-12-30T08:20:26.451Z,1020.86
2018-12-30T08:21:25.047Z,1020.81
2018-12-30T08:22:23.701Z,1020.8
2018-12-30T08:23:23.730Z,1020.84
2018-12-30T08:24:20.838Z,1020.88
2018-12-30T08:25:19.404Z,1020.97
2018-12-30T08:26:17.983Z,1021.08
2018-12-30T08:27:16.496Z,1021.08
2018-12-30T08:28:15.063Z,1021.11
2018-12-30T08:29:13.747Z,1021.13
2018-12-30T08:30:12.291Z,1021.12
2018-12-30T08:31:11.126Z,1021.1
2018-12-30T08:32:09.736Z,1021.16
2018-12-30T08:33:08.273Z,1021.19
2018-12-30T08:34:07.079Z,1021.3
2018-12-30T08:35:05.603Z,1021.29
2018-12-30T08:36:04.116Z,1021.42
2018-12-30T08:37:02.659Z,1021.43
2018-12-30T08:38:01.209Z,1021.48
2018-12-30T08:38:59.818Z,1021.53
2018-12-30T08:39:58.365Z,1021.57
2018-12-30T08:40:57.133Z,1021.65
2018-12-30T08:41:57.126Z,1021.65
2018-12-30T08:42:55.690Z,1021.65
2018-12-30T08:43:54.243Z,1021.62
2018-12-30T08:44:52.759Z,1021.61
2018-12-30T08:45:51.305Z,1021.69
2018-12-30T08:46:49.918Z,1021.69
2018-12-30T08:47:48.495Z,1021.74
2018-12-30T08:48:47.258Z,1021.73
2018-12-30T08:49:46.064Z,1021.71
2018-12-30T08:50:44.741Z,1021.67
2018-12-30T08:51:43.353Z,1021.76
2018-12-30T08:52:41.862Z,1021.7
2018-12-30T08:53:40.401Z,1021.7
2018-12-30T08:54:39.335Z,1021.71
2018-12-30T08:55:37.879Z,1021.71
2018-12-30T08:56:36.434Z,1021.76
2018-12-30T08:57:35.517Z,1021.85
2018-12-30T08:58:34.064Z,1021.84
2018-12-30T08:59:32.609Z,1021.88
2018-12-30T09:00:31.443Z,1021.9
2018-12-30T09:01:29.998Z,1021.81
2018-12-30T09:02:28.551Z,1021.81
2018-12-30T09:03:29.346Z,1021.88
2018-12-30T09:04:27.909Z,1021.86
2018-12-30T09:05:26.657Z,1021.83
2018-12-30T09:06:25.574Z,1021.81
2018-12-30T09:07:24.133Z,1021.83
2018-12-30T09:08:22.903Z,1021.84
2018-12-30T09:11:02.971Z,1021.82
2018-12-30T09:16:23.676Z,1021.83
2018-12-30T09:17:22.218Z,1021.9
2018-12-30T09:18:20.873Z,1021.89
2018-12-30T09:19:19.477Z,1021.9
2018-12-30T09:20:18.121Z,1021.85
2018-12-30T09:21:16.546Z,1021.84
2018-12-30T09:22:15.120Z,1021.84
2018-12-30T09:23:13.773Z,1021.76
2018-12-30T09:24:12.342Z,1021.75
2018-12-30T09:25:11.263Z,1021.75
2018-12-30T09:26:09.802Z,1021.77
2018-12-30T09:27:08.386Z,1021.8
2018-12-30T09:28:06.985Z,1021.88
2018-12-30T09:30:47.038Z,1021.85
2018-12-30T09:31:45.677Z,1021.81
2018-12-30T09:32:44.264Z,1021.87
2018-12-30T09:33:43.375Z,1021.87
2018-12-30T09:36:23.482Z,1021.96
2018-12-30T09:37:22.053Z,1021.99
2018-12-30T09:39:58.912Z,1022.03
2018-12-30T09:40:57.496Z,1022.1
2018-12-30T09:41:56.137Z,1022.13
2018-12-30T09:42:54.837Z,1022.15
2018-12-30T09:43:54.288Z,1022.12
2018-12-30T09:44:53.086Z,1022.12
2018-12-30T09:45:51.786Z,1022.1
2018-12-30T09:46:50.314Z,1022.1
2018-12-30T09:47:49.075Z,1022.13
2018-12-30T09:48:47.622Z,1022.14
2018-12-30T09:49:46.132Z,1022.13
2018-12-30T09:50:44.679Z,1022.16
2018-12-30T09:51:43.657Z,1022.1
2018-12-30T09:52:42.250Z,1022.11
2018-12-30T09:53:45.023Z,1022.11
2018-12-30T09:54:39.621Z,1022.05
2018-12-30T09:55:38.187Z,1022.14
2018-12-30T09:56:36.740Z,1022.16
2018-12-30T09:57:35.295Z,1022.15
2018-12-30T09:58:33.891Z,1022.15
2018-12-30T09:59:32.667Z,1022.15
2018-12-30T10:00:31.280Z,1022.16
2018-12-30T10:01:30.000Z,1022.15
2018-12-30T10:02:28.706Z,1022.2
2018-12-30T10:03:27.508Z,1022.16
2018-12-30T10:04:26.047Z,1022.21
2018-12-30T10:05:24.861Z,1022.16
2018-12-30T10:06:23.740Z,1022.21
2018-12-30T10:07:22.287Z,1022.2
2018-12-30T10:08:20.868Z,1022.23
2018-12-30T10:09:19.650Z,1022.11
2018-12-30T10:10:18.180Z,1022.23
2018-12-30T10:11:16.799Z,1022.14
2018-12-30T10:12:15.461Z,1022.17
2018-12-30T10:13:14.057Z,1022.15
2018-12-30T10:14:12.611Z,1022.13
2018-12-30T10:15:11.463Z,1022.12
2018-12-30T10:16:10.053Z,1022.15
2018-12-30T10:17:08.692Z,1022.04
2018-12-30T10:18:07.556Z,1022.05
2018-12-30T10:19:06.121Z,1022.12
2018-12-30T10:20:05.015Z,1022.13
2018-12-30T10:21:03.558Z,1022.12
2018-12-30T10:22:02.128Z,1022.16
2018-12-30T10:23:00.680Z,1022.13
2018-12-30T10:23:59.226Z,1022.14
2018-12-30T10:24:57.752Z,1022.12
2018-12-30T10:25:56.289Z,1022.09
2018-12-30T10:26:55.141Z,1022.1
2018-12-30T10:27:53.866Z,1022.09
2018-12-30T10:28:52.593Z,1022.05
2018-12-30T10:29:51.201Z,1022.02
2018-12-30T10:30:49.761Z,1022.06
2018-12-30T10:31:48.453Z,1022.06
2018-12-30T10:32:47.297Z,1022.05
2018-12-30T10:33:45.994Z,1022.05
2018-12-30T10:34:44.716Z,1022.05
2018-12-30T10:35:43.297Z,1022.05
2018-12-30T10:36:41.872Z,1022.02
2018-12-30T10:37:40.412Z,1022.07
2018-12-30T10:40:20.840Z,1021.93
2018-12-30T10:41:19.569Z,1021.96
2018-12-30T10:42:18.143Z,1022
2018-12-30T10:43:16.780Z,1021.91
2018-12-30T10:44:15.348Z,1021.93
2018-12-30T10:45:14.046Z,1021.87
2018-12-30T10:46:12.829Z,1021.85
2018-12-30T10:47:11.704Z,1021.83
2018-12-30T10:48:11.379Z,1021.85
2018-12-30T10:49:09.905Z,1021.85
2018-12-30T10:50:08.434Z,1021.84
2018-12-30T10:51:07.002Z,1021.84
2018-12-30T10:52:05.824Z,1021.86
2018-12-30T10:53:04.367Z,1021.88
2018-12-30T10:54:03.344Z,1021.99
2018-12-30T10:55:01.916Z,1022
2018-12-30T10:56:00.511Z,1022
2018-12-30T10:56:59.093Z,1021.97
2018-12-30T10:57:57.849Z,1021.95
2018-12-30T10:58:56.434Z,1021.91
2018-12-30T10:59:55.067Z,1021.93
2018-12-30T11:00:53.762Z,1021.93
2018-12-30T11:01:52.524Z,1021.94
2018-12-30T11:02:51.324Z,1022.02
2018-12-30T11:03:49.904Z,1021.96
2018-12-30T11:04:48.504Z,1021.99
2018-12-30T11:05:47.522Z,1022.01
2018-12-30T11:06:46.079Z,1021.99
2018-12-30T11:07:44.642Z,1022.01
2018-12-30T11:08:43.189Z,1022.04
2018-12-30T11:09:41.757Z,1022.02
2018-12-30T11:10:40.331Z,1022.06
2018-12-30T11:11:38.942Z,1022.02
2018-12-30T11:12:37.661Z,1021.99
2018-12-30T11:13:36.177Z,1021.95
2018-12-30T11:14:34.754Z,1021.97
2018-12-30T11:15:33.648Z,1021.97
2018-12-30T11:16:32.188Z,1021.93
2018-12-30T11:17:30.839Z,1021.92
2018-12-30T11:18:29.402Z,1021.93
2018-12-30T11:19:27.914Z,1021.93
2018-12-30T11:20:26.490Z,1021.95
2018-12-30T11:21:25.069Z,1021.97
2018-12-30T11:22:23.733Z,1021.97
2018-12-30T11:23:22.295Z,1021.99
2018-12-30T11:24:20.963Z,1022.01
2018-12-30T11:27:01.353Z,1021.92
2018-12-30T11:27:59.893Z,1021.91
2018-12-30T11:28:58.475Z,1021.83
2018-12-30T11:29:57.042Z,1021.83
2018-12-30T11:30:55.816Z,1021.79
2018-12-30T11:31:54.398Z,1021.82
2018-12-30T11:32:53.399Z,1021.85
2018-12-30T11:33:51.973Z,1021.72
2018-12-30T11:34:50.566Z,1021.67
2018-12-30T11:39:40.216Z,1021.77
2018-12-30T11:40:38.786Z,1021.76
2018-12-30T11:41:37.415Z,1021.85
2018-12-30T11:42:35.980Z,1021.81
2018-12-30T11:43:34.614Z,1021.86
2018-12-30T11:44:33.292Z,1021.92
2018-12-30T11:45:31.994Z,1021.88
2018-12-30T11:46:30.691Z,1021.9
2018-12-30T11:47:29.269Z,1021.89
2018-12-30T11:48:27.956Z,1021.88
2018-12-30T11:49:26.493Z,1021.9
2018-12-30T11:50:25.415Z,1021.94
2018-12-30T11:51:23.951Z,1021.94
2018-12-30T11:52:22.499Z,1021.95
2018-12-30T11:53:21.349Z,1022
2018-12-30T11:54:19.880Z,1021.96
2018-12-30T11:55:18.454Z,1021.99
2018-12-30T11:56:17.030Z,1021.98
2018-12-30T11:57:15.877Z,1021.98
2018-12-30T11:58:14.479Z,1022
2018-12-30T11:59:13.978Z,1022.03
2018-12-30T12:00:12.547Z,1022.09
2018-12-30T12:01:11.415Z,1022.06
2018-12-30T12:02:09.997Z,1022.07
2018-12-30T12:03:08.529Z,1022.11
2018-12-30T12:04:07.073Z,1022.1
2018-12-30T12:05:05.605Z,1022.08
2018-12-30T12:06:04.230Z,1022.12
2018-12-30T12:07:02.950Z,1022.06
2018-12-30T12:08:01.626Z,1022.05
2018-12-30T12:09:00.244Z,1022.03
2018-12-30T12:09:59.064Z,1021.96
2018-12-30T12:10:57.651Z,1021.94
2018-12-30T12:11:56.199Z,1021.93
2018-12-30T12:12:55.117Z,1021.91
2018-12-30T12:13:53.821Z,1021.94
2018-12-30T12:14:52.502Z,1021.9
2018-12-30T12:15:51.136Z,1021.83
2018-12-30T12:16:49.722Z,1021.86
2018-12-30T12:17:48.271Z,1021.88
2018-12-30T12:18:46.806Z,1021.9
2018-12-30T12:19:46.330Z,1021.89
2018-12-30T12:20:44.844Z,1021.92
2018-12-30T12:21:43.814Z,1021.87
2018-12-30T12:22:42.191Z,1021.79
2018-12-30T12:23:40.845Z,1021.85
2018-12-30T12:24:39.611Z,1021.88
2018-12-30T12:25:38.155Z,1021.85
2018-12-30T12:26:36.827Z,1021.81
2018-12-30T12:27:35.387Z,1021.71
2018-12-30T12:28:33.918Z,1021.7
2018-12-30T12:29:32.487Z,1021.66